sensor_id;sensor_type;location;lat;lon;timestamp;noise_LAeq;noise_LA_min;noise_LA_max;noise_LA01;noise_LA95
72805;Laerm;60920;48.748;19.142;2023-02-15T00:01:29;35.86;34.45;37.40;;
72805;Laerm;60920;48.748;19.142;2023-02-15T00:03:54;35.94;34.29;38.47;;
72805;Laerm;60920;48.748;19.142;2023-02-15T00:06:20;35.99;34.20;37.37;;
72805;Laerm;60920;48.748;19.142;2023-02-15T00:08:45;35.99;34.47;37.42;;
72805;Laerm;60920;48.748;19.142;2023-02-15T00:11:11;36.00;34.26;37.53;;
72805;Laerm;60920;48.748;19.142;2023-02-15T00:13:37;36.11;34.52;38.03;;
72805;Laerm;60920;48.748;19.142;2023-02-15T00:16:08;35.98;34.50;37.95;;
72805;Laerm;60920;48.748;19.142;2023-02-15T00:18:33;36.00;34.52;37.51;;
72805;Laerm;60920;48.748;19.142;2023-02-15T00:21:02;36.02;34.24;38.01;;
72805;Laerm;60920;48.748;19.142;2023-02-15T00:23:28;35.98;34.57;37.64;;
72805;Laerm;60920;48.748;19.142;2023-02-15T00:26:02;36.01;34.45;37.53;;
72805;Laerm;60920;48.748;19.142;2023-02-15T00:28:27;35.98;34.37;37.42;;
72805;Laerm;60920;48.748;19.142;2023-02-15T00:30:52;35.94;34.27;37.79;;
72805;Laerm;60920;48.748;19.142;2023-02-15T00:33:18;36.06;34.59;39.62;;
72805;Laerm;60920;48.748;19.142;2023-02-15T00:35:43;36.06;34.46;37.57;;
72805;Laerm;60920;48.748;19.142;2023-02-15T00:38:08;36.01;34.62;37.43;;
72805;Laerm;60920;48.748;19.142;2023-02-15T00:40:34;35.99;34.27;37.52;;
72805;Laerm;60920;48.748;19.142;2023-02-15T00:42:59;36.04;34.47;38.20;;
72805;Laerm;60920;48.748;19.142;2023-02-15T00:45:24;36.02;34.53;38.04;;
72805;Laerm;60920;48.748;19.142;2023-02-15T00:47:49;35.93;34.38;37.43;;
72805;Laerm;60920;48.748;19.142;2023-02-15T00:50:15;36.00;34.60;38.02;;
72805;Laerm;60920;48.748;19.142;2023-02-15T00:52:40;35.99;34.43;37.86;;
72805;Laerm;60920;48.748;19.142;2023-02-15T00:55:06;35.91;34.54;37.32;;
72805;Laerm;60920;48.748;19.142;2023-02-15T00:57:31;35.86;34.33;37.28;;
72805;Laerm;60920;48.748;19.142;2023-02-15T00:59:56;35.88;34.32;37.46;;
72805;Laerm;60920;48.748;19.142;2023-02-15T01:02:22;35.97;34.56;37.73;;
72805;Laerm;60920;48.748;19.142;2023-02-15T01:04:47;35.91;34.56;38.17;;
72805;Laerm;60920;48.748;19.142;2023-02-15T01:07:12;35.92;34.36;38.25;;
72805;Laerm;60920;48.748;19.142;2023-02-15T01:09:38;35.85;34.57;37.53;;
72805;Laerm;60920;48.748;19.142;2023-02-15T01:12:03;35.85;34.33;37.69;;
72805;Laerm;60920;48.748;19.142;2023-02-15T01:14:28;35.94;34.50;38.05;;
72805;Laerm;60920;48.748;19.142;2023-02-15T01:16:53;35.86;34.49;37.38;;
72805;Laerm;60920;48.748;19.142;2023-02-15T01:19:19;35.86;34.16;37.33;;
72805;Laerm;60920;48.748;19.142;2023-02-15T01:21:44;35.87;34.39;37.38;;
72805;Laerm;60920;48.748;19.142;2023-02-15T01:24:13;35.80;34.34;37.42;;
72805;Laerm;60920;48.748;19.142;2023-02-15T01:26:38;35.83;34.28;37.73;;
72805;Laerm;60920;48.748;19.142;2023-02-15T01:29:04;35.91;34.23;38.16;;
72805;Laerm;60920;48.748;19.142;2023-02-15T01:31:29;35.82;34.42;37.62;;
72805;Laerm;60920;48.748;19.142;2023-02-15T01:33:54;35.82;34.16;38.28;;
72805;Laerm;60920;48.748;19.142;2023-02-15T01:36:20;35.86;34.16;38.15;;
72805;Laerm;60920;48.748;19.142;2023-02-15T01:38:45;35.78;34.26;37.57;;
72805;Laerm;60920;48.748;19.142;2023-02-15T01:41:10;35.82;34.27;38.42;;
72805;Laerm;60920;48.748;19.142;2023-02-15T01:43:46;35.74;34.32;37.68;;
72805;Laerm;60920;48.748;19.142;2023-02-15T01:46:13;35.67;34.26;37.24;;
72805;Laerm;60920;48.748;19.142;2023-02-15T01:48:43;35.73;34.08;37.34;;
72805;Laerm;60920;48.748;19.142;2023-02-15T01:51:09;35.78;34.39;37.70;;
72805;Laerm;60920;48.748;19.142;2023-02-15T01:53:40;35.67;34.30;36.97;;
72805;Laerm;60920;48.748;19.142;2023-02-15T01:56:12;35.82;34.29;40.00;;
72805;Laerm;60920;48.748;19.142;2023-02-15T01:58:38;35.81;34.30;38.97;;
72805;Laerm;60920;48.748;19.142;2023-02-15T02:01:04;35.63;34.26;37.78;;
72805;Laerm;60920;48.748;19.142;2023-02-15T02:03:55;35.62;34.15;37.49;;
72805;Laerm;60920;48.748;19.142;2023-02-15T02:06:16;35.64;34.15;37.15;;
72805;Laerm;60920;48.748;19.142;2023-02-15T02:08:41;35.70;34.30;37.38;;
72805;Laerm;60920;48.748;19.142;2023-02-15T02:11:11;35.72;34.23;37.12;;
72805;Laerm;60920;48.748;19.142;2023-02-15T02:13:36;35.70;33.96;37.29;;
72805;Laerm;60920;48.748;19.142;2023-02-15T02:16:24;35.64;34.08;36.96;;
72805;Laerm;60920;48.748;19.142;2023-02-15T02:31:44;35.52;33.93;37.03;;
72805;Laerm;60920;48.748;19.142;2023-02-15T02:34:20;35.52;34.03;37.23;;
72805;Laerm;60920;48.748;19.142;2023-02-15T02:36:58;35.66;34.18;38.42;;
72805;Laerm;60920;48.748;19.142;2023-02-15T02:44:43;35.58;33.98;37.43;;
72805;Laerm;60920;48.748;19.142;2023-02-15T02:47:14;35.48;34.01;37.14;;
72805;Laerm;60920;48.748;19.142;2023-02-15T02:49:42;35.38;34.00;36.62;;
72805;Laerm;60920;48.748;19.142;2023-02-15T02:52:53;35.73;33.89;41.40;;
72805;Laerm;60920;48.748;19.142;2023-02-15T02:54:53;35.52;33.86;37.91;;
72805;Laerm;60920;48.748;19.142;2023-02-15T02:57:20;35.53;34.00;37.65;;
72805;Laerm;60920;48.748;19.142;2023-02-15T02:59:48;35.48;33.92;37.40;;
72805;Laerm;60920;48.748;19.142;2023-02-15T03:02:25;35.40;33.94;38.22;;
72805;Laerm;60920;48.748;19.142;2023-02-15T03:04:53;35.47;33.87;37.06;;
72805;Laerm;60920;48.748;19.142;2023-02-15T03:07:23;35.59;34.21;38.25;;
72805;Laerm;60920;48.748;19.142;2023-02-15T03:09:54;35.59;33.93;38.33;;
72805;Laerm;60920;48.748;19.142;2023-02-15T03:12:21;35.50;34.00;37.78;;
72805;Laerm;60920;48.748;19.142;2023-02-15T03:14:50;35.42;34.02;36.92;;
72805;Laerm;60920;48.748;19.142;2023-02-15T03:17:19;35.40;33.94;37.72;;
72805;Laerm;60920;48.748;19.142;2023-02-15T03:19:45;35.48;34.07;37.12;;
72805;Laerm;60920;48.748;19.142;2023-02-15T03:22:16;35.34;33.74;38.00;;
72805;Laerm;60920;48.748;19.142;2023-02-15T03:24:52;35.44;33.98;38.21;;
72805;Laerm;60920;48.748;19.142;2023-02-15T03:27:20;35.54;33.96;37.71;;
72805;Laerm;60920;48.748;19.142;2023-02-15T03:29:48;35.41;33.98;36.96;;
72805;Laerm;60920;48.748;19.142;2023-02-15T03:32:15;35.41;33.94;36.96;;
72805;Laerm;60920;48.748;19.142;2023-02-15T03:34:41;35.44;33.90;36.94;;
72805;Laerm;60920;48.748;19.142;2023-02-15T03:39:39;35.39;33.67;37.90;;
72805;Laerm;60920;48.748;19.142;2023-02-15T03:42:16;35.34;33.87;37.15;;
72805;Laerm;60920;48.748;19.142;2023-02-15T03:44:47;35.47;33.88;37.35;;
72805;Laerm;60920;48.748;19.142;2023-02-15T03:47:16;35.55;34.07;39.55;;
72805;Laerm;60920;48.748;19.142;2023-02-15T03:49:43;35.41;33.89;38.47;;
72805;Laerm;60920;48.748;19.142;2023-02-15T03:52:10;35.60;33.81;40.02;;
72805;Laerm;60920;48.748;19.142;2023-02-15T03:54:39;35.43;34.09;36.88;;
72805;Laerm;60920;48.748;19.142;2023-02-15T03:57:09;35.54;33.89;38.70;;
72805;Laerm;60920;48.748;19.142;2023-02-15T03:59:54;35.58;34.02;38.07;;
72805;Laerm;60920;48.748;19.142;2023-02-15T04:05:15;35.41;33.93;36.68;;
72805;Laerm;60920;48.748;19.142;2023-02-15T04:07:40;35.48;34.00;38.10;;
72805;Laerm;60920;48.748;19.142;2023-02-15T04:10:06;35.58;33.93;37.92;;
72805;Laerm;60920;48.748;19.142;2023-02-15T04:13:06;35.61;33.94;38.51;;
72805;Laerm;60920;48.748;19.142;2023-02-15T04:15:32;35.61;34.16;39.37;;
72805;Laerm;60920;48.748;19.142;2023-02-15T04:18:16;35.48;33.95;37.45;;
72805;Laerm;60920;48.748;19.142;2023-02-15T04:20:45;35.55;33.97;37.17;;
72805;Laerm;60920;48.748;19.142;2023-02-15T04:23:28;35.58;34.01;37.97;;
72805;Laerm;60920;48.748;19.142;2023-02-15T04:26:12;35.51;33.73;37.36;;
72805;Laerm;60920;48.748;19.142;2023-02-15T04:28:38;35.53;33.59;36.95;;
72805;Laerm;60920;48.748;19.142;2023-02-15T04:31:03;35.69;34.05;37.34;;
72805;Laerm;60920;48.748;19.142;2023-02-15T04:33:28;35.90;34.40;41.58;;
72805;Laerm;60920;48.748;19.142;2023-02-15T04:35:53;35.84;34.36;38.22;;
72805;Laerm;60920;48.748;19.142;2023-02-15T04:38:19;35.76;34.11;38.48;;
72805;Laerm;60920;48.748;19.142;2023-02-15T04:40:44;35.73;34.30;37.90;;
72805;Laerm;60920;48.748;19.142;2023-02-15T04:43:13;35.83;34.34;38.04;;
72805;Laerm;60920;48.748;19.142;2023-02-15T04:45:39;35.83;34.24;38.59;;
72805;Laerm;60920;48.748;19.142;2023-02-15T04:48:04;35.65;34.22;37.58;;
72805;Laerm;60920;48.748;19.142;2023-02-15T04:50:29;35.76;34.09;38.58;;
72805;Laerm;60920;48.748;19.142;2023-02-15T04:52:55;35.87;34.03;37.79;;
72805;Laerm;60920;48.748;19.142;2023-02-15T04:55:22;35.69;34.00;37.58;;
72805;Laerm;60920;48.748;19.142;2023-02-15T04:57:47;35.83;33.96;40.96;;
72805;Laerm;60920;48.748;19.142;2023-02-15T05:00:13;35.76;34.17;39.17;;
72805;Laerm;60920;48.748;19.142;2023-02-15T05:02:38;35.60;33.83;38.72;;
72805;Laerm;60920;48.748;19.142;2023-02-15T05:05:04;35.71;33.78;41.07;;
72805;Laerm;60920;48.748;19.142;2023-02-15T05:07:29;35.89;34.45;37.98;;
72805;Laerm;60920;48.748;19.142;2023-02-15T05:09:54;35.86;34.18;37.45;;
72805;Laerm;60920;48.748;19.142;2023-02-15T05:12:19;35.74;34.11;39.82;;
72805;Laerm;60920;48.748;19.142;2023-02-15T05:14:45;35.78;34.05;38.65;;
72805;Laerm;60920;48.748;19.142;2023-02-15T05:17:10;35.74;34.12;38.38;;
72805;Laerm;60920;48.748;19.142;2023-02-15T05:19:35;35.95;33.99;38.95;;
72805;Laerm;60920;48.748;19.142;2023-02-15T05:22:01;35.78;33.95;38.38;;
72805;Laerm;60920;48.748;19.142;2023-02-15T05:24:26;36.15;33.95;38.60;;
72805;Laerm;60920;48.748;19.142;2023-02-15T05:27:10;36.09;34.39;39.83;;
72805;Laerm;60920;48.748;19.142;2023-02-15T05:29:55;35.98;34.30;41.32;;
72805;Laerm;60920;48.748;19.142;2023-02-15T05:32:20;35.87;34.06;37.72;;
72805;Laerm;60920;48.748;19.142;2023-02-15T05:34:45;35.98;33.97;38.93;;
72805;Laerm;60920;48.748;19.142;2023-02-15T05:37:10;36.17;34.41;38.99;;
72805;Laerm;60920;48.748;19.142;2023-02-15T05:39:36;36.05;34.32;39.59;;
72805;Laerm;60920;48.748;19.142;2023-02-15T05:42:01;35.94;34.41;37.63;;
72805;Laerm;60920;48.748;19.142;2023-02-15T05:44:27;36.18;34.56;38.50;;
72805;Laerm;60920;48.748;19.142;2023-02-15T05:46:52;36.19;34.61;37.96;;
72805;Laerm;60920;48.748;19.142;2023-02-15T05:49:17;36.19;34.29;37.84;;
72805;Laerm;60920;48.748;19.142;2023-02-15T05:51:42;36.40;34.46;42.73;;
72805;Laerm;60920;48.748;19.142;2023-02-15T05:54:08;36.39;34.37;38.51;;
72805;Laerm;60920;48.748;19.142;2023-02-15T05:56:33;36.48;34.37;38.81;;
72805;Laerm;60920;48.748;19.142;2023-02-15T05:58:58;36.40;34.78;38.30;;
72805;Laerm;60920;48.748;19.142;2023-02-15T06:01:24;36.43;34.59;38.89;;
72805;Laerm;60920;48.748;19.142;2023-02-15T06:03:49;36.30;34.23;38.08;;
72805;Laerm;60920;48.748;19.142;2023-02-15T06:06:14;36.53;34.45;39.34;;
72805;Laerm;60920;48.748;19.142;2023-02-15T06:08:40;36.59;34.44;38.82;;
72805;Laerm;60920;48.748;19.142;2023-02-15T06:11:06;36.60;34.45;42.54;;
72805;Laerm;60920;48.748;19.142;2023-02-15T06:13:31;36.51;34.87;41.90;;
72805;Laerm;60920;48.748;19.142;2023-02-15T06:15:57;36.72;34.83;38.60;;
72805;Laerm;60920;48.748;19.142;2023-02-15T06:18:22;36.48;34.83;38.51;;
72805;Laerm;60920;48.748;19.142;2023-02-15T06:20:48;36.71;34.60;39.95;;
72805;Laerm;60920;48.748;19.142;2023-02-15T06:23:13;36.62;34.92;38.16;;
72805;Laerm;60920;48.748;19.142;2023-02-15T06:25:39;36.61;34.94;38.56;;
72805;Laerm;60920;48.748;19.142;2023-02-15T06:28:05;36.83;34.90;39.30;;
72805;Laerm;60920;48.748;19.142;2023-02-15T06:30:31;36.86;34.97;40.99;;
72805;Laerm;60920;48.748;19.142;2023-02-15T06:32:56;36.85;35.18;39.19;;
72805;Laerm;60920;48.748;19.142;2023-02-15T06:35:22;36.87;35.21;39.89;;
72805;Laerm;60920;48.748;19.142;2023-02-15T06:37:47;37.10;35.16;42.02;;
72805;Laerm;60920;48.748;19.142;2023-02-15T06:40:13;36.72;34.78;39.13;;
72805;Laerm;60920;48.748;19.142;2023-02-15T06:42:38;36.60;35.03;39.74;;
72805;Laerm;60920;48.748;19.142;2023-02-15T06:45:03;36.76;34.95;40.21;;
72805;Laerm;60920;48.748;19.142;2023-02-15T06:47:29;36.89;35.40;39.37;;
72805;Laerm;60920;48.748;19.142;2023-02-15T06:49:54;36.90;35.22;39.01;;
72805;Laerm;60920;48.748;19.142;2023-02-15T06:52:19;36.97;35.00;39.71;;
72805;Laerm;60920;48.748;19.142;2023-02-15T06:54:45;36.84;35.16;40.97;;
72805;Laerm;60920;48.748;19.142;2023-02-15T06:57:10;36.72;35.13;38.47;;
72805;Laerm;60920;48.748;19.142;2023-02-15T06:59:35;36.77;35.01;38.34;;
72805;Laerm;60920;48.748;19.142;2023-02-15T07:02:01;36.88;35.30;38.55;;
72805;Laerm;60920;48.748;19.142;2023-02-15T07:04:26;36.61;34.83;38.66;;
72805;Laerm;60920;48.748;19.142;2023-02-15T07:06:53;36.78;35.14;38.67;;
72805;Laerm;60920;48.748;19.142;2023-02-15T07:09:19;36.98;35.42;38.94;;
72805;Laerm;60920;48.748;19.142;2023-02-15T07:11:44;37.00;35.15;38.95;;
72805;Laerm;60920;48.748;19.142;2023-02-15T07:14:28;36.89;35.48;38.60;;
72805;Laerm;60920;48.748;19.142;2023-02-15T07:16:53;36.92;35.18;38.42;;
72805;Laerm;60920;48.748;19.142;2023-02-15T07:19:19;36.88;35.00;38.42;;
72805;Laerm;60920;48.748;19.142;2023-02-15T07:21:44;36.91;35.13;38.57;;
72805;Laerm;60920;48.748;19.142;2023-02-15T07:24:10;36.79;35.26;39.97;;
72805;Laerm;60920;48.748;19.142;2023-02-15T07:26:35;36.92;35.41;38.77;;
72805;Laerm;60920;48.748;19.142;2023-02-15T07:29:01;36.86;35.09;39.16;;
72805;Laerm;60920;48.748;19.142;2023-02-15T07:31:26;36.87;35.20;38.92;;
72805;Laerm;60920;48.748;19.142;2023-02-15T07:33:51;36.82;34.82;38.77;;
72805;Laerm;60920;48.748;19.142;2023-02-15T07:36:16;36.83;35.02;46.91;;
72805;Laerm;60920;48.748;19.142;2023-02-15T07:38:42;36.78;35.37;38.88;;
72805;Laerm;60920;48.748;19.142;2023-02-15T07:41:12;36.75;35.23;38.41;;
72805;Laerm;60920;48.748;19.142;2023-02-15T07:43:39;36.78;35.03;38.90;;
72805;Laerm;60920;48.748;19.142;2023-02-15T07:46:10;36.84;34.87;40.27;;
72805;Laerm;60920;48.748;19.142;2023-02-15T07:48:36;36.80;35.00;39.60;;
72805;Laerm;60920;48.748;19.142;2023-02-15T07:51:02;36.70;34.79;41.51;;
72805;Laerm;60920;48.748;19.142;2023-02-15T07:53:29;36.60;34.59;38.94;;
72805;Laerm;60920;48.748;19.142;2023-02-15T07:55:58;36.49;34.58;38.55;;
72805;Laerm;60920;48.748;19.142;2023-02-15T07:58:23;36.47;34.80;39.38;;
72805;Laerm;60920;48.748;19.142;2023-02-15T08:01:08;36.38;34.50;39.41;;
72805;Laerm;60920;48.748;19.142;2023-02-15T08:03:34;36.54;34.66;39.21;;
72805;Laerm;60920;48.748;19.142;2023-02-15T08:05:59;36.58;34.32;43.65;;
72805;Laerm;60920;48.748;19.142;2023-02-15T08:08:28;36.26;34.41;38.90;;
72805;Laerm;60920;48.748;19.142;2023-02-15T08:13:43;35.97;34.13;41.34;;
72805;Laerm;60920;48.748;19.142;2023-02-15T08:18:51;36.19;34.29;41.40;;
72805;Laerm;60920;48.748;19.142;2023-02-15T08:21:17;35.80;33.85;39.44;;
72805;Laerm;60920;48.748;19.142;2023-02-15T08:23:42;35.91;34.11;39.83;;
72805;Laerm;60920;48.748;19.142;2023-02-15T08:26:08;35.61;33.62;38.99;;
72805;Laerm;60920;48.748;19.142;2023-02-15T08:28:33;35.69;33.31;40.88;;
72805;Laerm;60920;48.748;19.142;2023-02-15T08:31:05;35.66;33.63;40.24;;
72805;Laerm;60920;48.748;19.142;2023-02-15T08:33:31;35.87;33.61;42.44;;
72805;Laerm;60920;48.748;19.142;2023-02-15T08:35:56;35.75;33.79;40.64;;
72805;Laerm;60920;48.748;19.142;2023-02-15T08:38:21;35.42;33.30;40.11;;
72805;Laerm;60920;48.748;19.142;2023-02-15T08:40:47;35.36;33.18;38.85;;
72805;Laerm;60920;48.748;19.142;2023-02-15T08:43:12;35.21;33.15;39.76;;
72805;Laerm;60920;48.748;19.142;2023-02-15T08:45:37;35.34;32.83;37.93;;
72805;Laerm;60920;48.748;19.142;2023-02-15T08:48:03;35.10;32.80;38.22;;
72805;Laerm;60920;48.748;19.142;2023-02-15T08:50:28;35.18;33.24;38.27;;
72805;Laerm;60920;48.748;19.142;2023-02-15T08:52:53;35.38;32.64;40.33;;
72805;Laerm;60920;48.748;19.142;2023-02-15T08:55:18;34.83;32.23;38.43;;
72805;Laerm;60920;48.748;19.142;2023-02-15T08:57:44;35.33;32.38;39.22;;
72805;Laerm;60920;48.748;19.142;2023-02-15T09:00:10;35.29;32.54;39.17;;
72805;Laerm;60920;48.748;19.142;2023-02-15T09:02:37;35.28;32.38;42.30;;
72805;Laerm;60920;48.748;19.142;2023-02-15T09:05:02;34.88;32.07;45.11;;
72805;Laerm;60920;48.748;19.142;2023-02-15T09:07:27;34.62;32.11;43.21;;
72805;Laerm;60920;48.748;19.142;2023-02-15T09:09:53;36.75;33.04;42.91;;
72805;Laerm;60920;48.748;19.142;2023-02-15T09:12:19;36.85;33.19;41.10;;
72805;Laerm;60920;48.748;19.142;2023-02-15T09:14:44;33.44;30.16;39.06;;
72805;Laerm;60920;48.748;19.142;2023-02-15T09:17:09;33.78;29.24;43.26;;
72805;Laerm;60920;48.748;19.142;2023-02-15T09:19:35;34.95;29.98;48.53;;
72805;Laerm;60920;48.748;19.142;2023-02-15T09:22:00;34.94;31.78;39.03;;
72805;Laerm;60920;48.748;19.142;2023-02-15T09:24:26;34.15;30.68;40.65;;
72805;Laerm;60920;48.748;19.142;2023-02-15T09:26:51;35.09;30.98;42.76;;
72805;Laerm;60920;48.748;19.142;2023-02-15T09:29:18;34.77;30.41;41.68;;
72805;Laerm;60920;48.748;19.142;2023-02-15T09:31:44;35.44;31.00;45.34;;
72805;Laerm;60920;48.748;19.142;2023-02-15T09:34:11;34.62;30.80;46.83;;
72805;Laerm;60920;48.748;19.142;2023-02-15T09:36:37;35.03;32.35;42.30;;
72805;Laerm;60920;48.748;19.142;2023-02-15T09:44:17;34.63;30.10;40.55;;
72805;Laerm;60920;48.748;19.142;2023-02-15T09:46:51;35.95;30.42;43.33;;
72805;Laerm;60920;48.748;19.142;2023-02-15T09:49:33;35.19;31.54;43.43;;
72805;Laerm;60920;48.748;19.142;2023-02-15T09:57:10;37.28;32.92;42.76;;
72805;Laerm;60920;48.748;19.142;2023-02-15T09:59:44;35.41;31.72;41.36;;
72805;Laerm;60920;48.748;19.142;2023-02-15T10:04:54;35.43;31.77;41.67;;
72805;Laerm;60920;48.748;19.142;2023-02-15T10:12:41;35.87;29.70;44.40;;
72805;Laerm;60920;48.748;19.142;2023-02-15T10:20:27;36.43;31.09;46.44;;
72805;Laerm;60920;48.748;19.142;2023-02-15T10:25:28;34.96;30.97;41.06;;
72805;Laerm;60920;48.748;19.142;2023-02-15T10:27:57;35.80;31.77;40.51;;
72805;Laerm;60920;48.748;19.142;2023-02-15T10:33:13;35.12;29.86;40.89;;
72805;Laerm;60920;48.748;19.142;2023-02-15T10:35:45;36.34;29.82;42.58;;
72805;Laerm;60920;48.748;19.142;2023-02-15T10:40:56;37.01;32.64;46.22;;
72805;Laerm;60920;48.748;19.142;2023-02-15T10:43:35;35.92;31.40;40.30;;
72805;Laerm;60920;48.748;19.142;2023-02-15T10:46:17;36.50;32.75;41.55;;
72805;Laerm;60920;48.748;19.142;2023-02-15T10:48:48;36.09;31.63;44.86;;
72805;Laerm;60920;48.748;19.142;2023-02-15T10:51:25;35.58;31.74;43.45;;
72805;Laerm;60920;48.748;19.142;2023-02-15T11:02:15;35.79;30.94;44.66;;
72805;Laerm;60920;48.748;19.142;2023-02-15T11:04:53;38.05;31.57;53.91;;
72805;Laerm;60920;48.748;19.142;2023-02-15T11:07:27;36.44;31.59;42.49;;
72805;Laerm;60920;48.748;19.142;2023-02-15T11:10:00;35.02;31.22;42.48;;
72805;Laerm;60920;48.748;19.142;2023-02-15T11:12:26;36.11;30.83;46.07;;
72805;Laerm;60920;48.748;19.142;2023-02-15T11:17:21;36.43;31.88;48.10;;
72805;Laerm;60920;48.748;19.142;2023-02-15T11:22:22;36.47;31.52;44.69;;
72805;Laerm;60920;48.748;19.142;2023-02-15T11:24:47;35.74;30.92;42.51;;
72805;Laerm;60920;48.748;19.142;2023-02-15T11:27:18;35.42;30.90;42.20;;
72805;Laerm;60920;48.748;19.142;2023-02-15T11:32:32;35.71;31.12;44.04;;
72805;Laerm;60920;48.748;19.142;2023-02-15T11:37:26;35.98;31.92;44.61;;
72805;Laerm;60920;48.748;19.142;2023-02-15T11:39:53;40.41;31.97;62.26;;
72805;Laerm;60920;48.748;19.142;2023-02-15T11:42:20;36.01;31.58;41.23;;
72805;Laerm;60920;48.748;19.142;2023-02-15T11:47:31;35.22;31.22;42.11;;
72805;Laerm;60920;48.748;19.142;2023-02-15T11:49:57;35.84;31.10;43.87;;
72805;Laerm;60920;48.748;19.142;2023-02-15T11:52:22;36.80;33.27;42.85;;
72805;Laerm;60920;48.748;19.142;2023-02-15T11:54:49;36.77;31.38;47.35;;
72805;Laerm;60920;48.748;19.142;2023-02-15T11:57:36;36.36;30.58;43.42;;
72805;Laerm;60920;48.748;19.142;2023-02-15T12:00:09;36.48;30.80;48.37;;
72805;Laerm;60920;48.748;19.142;2023-02-15T12:02:35;36.56;32.97;45.88;;
72805;Laerm;60920;48.748;19.142;2023-02-15T12:05:03;35.71;30.77;44.92;;
72805;Laerm;60920;48.748;19.142;2023-02-15T12:07:32;34.90;30.79;42.18;;
72805;Laerm;60920;48.748;19.142;2023-02-15T12:10:04;35.90;31.51;45.65;;
72805;Laerm;60920;48.748;19.142;2023-02-15T12:12:37;37.63;31.60;66.86;;
72805;Laerm;60920;48.748;19.142;2023-02-15T12:15:04;37.05;32.18;42.85;;
72805;Laerm;60920;48.748;19.142;2023-02-15T12:17:51;35.39;31.77;41.29;;
72805;Laerm;60920;48.748;19.142;2023-02-15T12:22:50;35.92;32.71;43.28;;
72805;Laerm;60920;48.748;19.142;2023-02-15T12:25:24;36.90;32.49;43.54;;
72805;Laerm;60920;48.748;19.142;2023-02-15T12:27:51;36.32;30.78;45.64;;
72805;Laerm;60920;48.748;19.142;2023-02-15T12:30:20;38.03;33.03;47.04;;
72805;Laerm;60920;48.748;19.142;2023-02-15T12:32:48;37.50;32.96;47.28;;
72805;Laerm;60920;48.748;19.142;2023-02-15T12:35:16;35.98;30.74;44.56;;
72805;Laerm;60920;48.748;19.142;2023-02-15T12:37:57;36.86;31.60;46.78;;
72805;Laerm;60920;48.748;19.142;2023-02-15T12:40:25;37.21;32.75;42.92;;
72805;Laerm;60920;48.748;19.142;2023-02-15T12:42:52;36.43;33.04;43.23;;
72805;Laerm;60920;48.748;19.142;2023-02-15T12:45:31;35.84;31.64;40.86;;
72805;Laerm;60920;48.748;19.142;2023-02-15T12:50:34;36.98;31.89;45.12;;
72805;Laerm;60920;48.748;19.142;2023-02-15T12:55:31;36.59;32.33;42.13;;
72805;Laerm;60920;48.748;19.142;2023-02-15T12:58:39;36.75;32.88;42.42;;
72805;Laerm;60920;48.748;19.142;2023-02-15T13:00:46;36.41;31.65;47.82;;
72805;Laerm;60920;48.748;19.142;2023-02-15T13:03:16;36.79;32.28;41.73;;
72805;Laerm;60920;48.748;19.142;2023-02-15T13:05:42;36.04;32.21;42.86;;
72805;Laerm;60920;48.748;19.142;2023-02-15T13:08:14;36.24;30.76;48.76;;
72805;Laerm;60920;48.748;19.142;2023-02-15T13:10:42;35.90;31.78;40.51;;
72805;Laerm;60920;48.748;19.142;2023-02-15T13:13:51;36.87;31.90;44.90;;
72805;Laerm;60920;48.748;19.142;2023-02-15T13:15:58;37.73;33.92;46.06;;
72805;Laerm;60920;48.748;19.142;2023-02-15T13:18:43;36.99;31.92;42.86;;
72805;Laerm;60920;48.748;19.142;2023-02-15T13:21:10;36.64;33.19;41.60;;
72805;Laerm;60920;48.748;19.142;2023-02-15T13:23:36;36.97;32.07;42.04;;
72805;Laerm;60920;48.748;19.142;2023-02-15T13:26:03;37.90;34.20;44.75;;
72805;Laerm;60920;48.748;19.142;2023-02-15T13:28:39;36.44;31.78;40.75;;
72805;Laerm;60920;48.748;19.142;2023-02-15T13:31:20;37.91;32.43;43.94;;
72805;Laerm;60920;48.748;19.142;2023-02-15T13:33:48;37.10;32.58;48.72;;
72805;Laerm;60920;48.748;19.142;2023-02-15T13:36:35;37.29;33.22;42.94;;
72805;Laerm;60920;48.748;19.142;2023-02-15T13:46:49;38.10;34.86;45.00;;
72805;Laerm;60920;48.748;19.142;2023-02-15T13:57:33;36.75;32.85;42.00;;
72805;Laerm;60920;48.748;19.142;2023-02-15T14:02:43;36.87;33.01;43.47;;
72805;Laerm;60920;48.748;19.142;2023-02-15T14:05:27;37.98;33.68;43.66;;
72805;Laerm;60920;48.748;19.142;2023-02-15T14:10:41;38.30;35.05;42.55;;
72805;Laerm;60920;48.748;19.142;2023-02-15T14:15:39;37.43;33.99;44.49;;
72805;Laerm;60920;48.748;19.142;2023-02-15T14:30:26;38.03;33.95;44.39;;
72805;Laerm;60920;48.748;19.142;2023-02-15T14:32:54;37.84;34.79;43.45;;
72805;Laerm;60920;48.748;19.142;2023-02-15T14:35:24;36.94;33.09;40.90;;
72805;Laerm;60920;48.748;19.142;2023-02-15T14:40:19;37.37;33.29;41.09;;
72805;Laerm;60920;48.748;19.142;2023-02-15T14:45:37;38.66;35.13;44.98;;
72805;Laerm;60920;48.748;19.142;2023-02-15T14:55:46;38.26;34.54;42.56;;
72805;Laerm;60920;48.748;19.142;2023-02-15T14:58:12;38.01;34.29;45.70;;
72805;Laerm;60920;48.748;19.142;2023-02-15T15:00:39;37.58;34.02;42.68;;
72805;Laerm;60920;48.748;19.142;2023-02-15T15:03:38;38.43;34.75;42.12;;
72805;Laerm;60920;48.748;19.142;2023-02-15T15:05:56;38.46;34.86;51.40;;
72805;Laerm;60920;48.748;19.142;2023-02-15T15:08:34;38.78;34.44;48.31;;
72805;Laerm;60920;48.748;19.142;2023-02-15T15:11:48;38.40;34.60;48.68;;
72805;Laerm;60920;48.748;19.142;2023-02-15T15:13:58;38.86;35.44;46.44;;
72805;Laerm;60920;48.748;19.142;2023-02-15T15:16:29;38.07;35.09;45.96;;
72805;Laerm;60920;48.748;19.142;2023-02-15T15:18:55;37.38;33.74;44.79;;
72805;Laerm;60920;48.748;19.142;2023-02-15T15:24:05;37.55;32.65;44.18;;
72805;Laerm;60920;48.748;19.142;2023-02-15T15:26:31;38.02;34.94;44.60;;
72805;Laerm;60920;48.748;19.142;2023-02-15T15:29:05;37.00;33.71;45.26;;
72805;Laerm;60920;48.748;19.142;2023-02-15T15:49:57;35.47;32.08;40.96;;
72805;Laerm;60920;48.748;19.142;2023-02-15T15:52:23;35.99;31.64;42.12;;
72805;Laerm;60920;48.748;19.142;2023-02-15T15:54:52;44.80;33.79;62.21;;
72805;Laerm;60920;48.748;19.142;2023-02-15T15:57:27;35.89;33.21;47.04;;
72805;Laerm;60920;48.748;19.142;2023-02-15T15:59:53;35.54;32.09;40.72;;
72805;Laerm;60920;48.748;19.142;2023-02-15T16:02:19;36.05;32.08;41.61;;
72805;Laerm;60920;48.748;19.142;2023-02-15T16:04:45;37.00;33.36;44.16;;
72805;Laerm;60920;48.748;19.142;2023-02-15T16:09:58;35.98;33.23;39.95;;
72805;Laerm;60920;48.748;19.142;2023-02-15T16:12:24;36.74;33.25;42.43;;
72805;Laerm;60920;48.748;19.142;2023-02-15T16:14:49;36.63;33.77;40.96;;
72805;Laerm;60920;48.748;19.142;2023-02-15T16:17:19;36.33;33.33;40.91;;
72805;Laerm;60920;48.748;19.142;2023-02-15T16:19:45;35.83;33.35;38.30;;
72805;Laerm;60920;48.748;19.142;2023-02-15T16:22:13;36.25;33.80;39.89;;